Time;durP1;ratioP1;P1;durP2;ratioP2;P2;SDS_P1;SDS_P2;PMS_P1;PMS_P2;Temp;Humidity;BMP_temperature;BMP_pressure;BME280_temperature;BME280_humidity;BME280_pressure;Samples;Min_cycle;Max_cycle;Signal;HPM_P1;HPM_P2
2023/09/27 00:02:25;;;;;;;4.53;2.70;;;17.20;99.90;;;;;;5037026;28;20185;-66
2023/09/27 00:04:51;;;;;;;3.40;2.47;;;17.20;99.90;;;;;;5036780;28;20193;-64
2023/09/27 00:07:16;;;;;;;4.10;2.80;;;17.10;99.90;;;;;;5055518;28;20258;-65
2023/09/27 00:09:42;;;;;;;3.85;2.53;;;17.10;99.90;;;;;;5040241;28;20298;-66
2023/09/27 00:12:09;;;;;;;5.03;2.50;;;17.10;99.90;;;;;;5051284;28;20260;-66
2023/09/27 00:14:39;;;;;;;4.22;2.55;;;17.00;99.90;;;;;;5036582;28;20199;-65
2023/09/27 00:17:04;;;;;;;3.42;2.38;;;17.00;99.90;;;;;;5036798;28;20291;-65
2023/09/27 00:19:33;;;;;;;2.97;2.20;;;17.00;99.90;;;;;;5035431;28;20249;-65
2023/09/27 00:22:00;;;;;;;3.13;2.50;;;17.00;99.90;;;;;;5040877;28;20191;-65
2023/09/27 00:24:28;;;;;;;2.53;2.22;;;17.00;99.90;;;;;;5040481;28;20217;-64
2023/09/27 00:26:54;;;;;;;4.15;2.47;;;16.90;99.90;;;;;;5040547;28;20589;-66
2023/09/27 00:29:20;;;;;;;2.97;2.38;;;16.90;99.90;;;;;;5037311;28;20458;-66
2023/09/27 00:31:48;;;;;;;2.63;2.38;;;16.90;99.90;;;;;;5043109;28;20319;-65
2023/09/27 00:34:16;;;;;;;2.38;2.17;;;16.90;99.90;;;;;;5036903;28;20197;-66
2023/09/27 00:36:42;;;;;;;3.67;2.47;;;16.90;99.90;;;;;;5037952;28;20230;-65
2023/09/27 00:39:07;;;;;;;2.83;2.30;;;16.80;99.90;;;;;;5036329;28;20189;-65
2023/09/27 00:41:33;;;;;;;2.65;2.22;;;16.80;99.90;;;;;;5040745;28;20263;-65
2023/09/27 00:43:59;;;;;;;3.38;2.30;;;16.80;99.90;;;;;;5039539;28;20256;-66
2023/09/27 00:46:24;;;;;;;4.22;2.63;;;16.90;99.90;;;;;;5068825;28;20193;-65
2023/09/27 00:48:53;;;;;;;3.20;2.38;;;16.80;99.90;;;;;;5034021;28;20189;-65
2023/09/27 00:51:18;;;;;;;2.58;1.90;;;16.80;99.90;;;;;;5036334;28;20178;-66
2023/09/27 00:53:46;;;;;;;3.38;2.33;;;16.80;99.90;;;;;;5039769;28;20212;-65
2023/09/27 00:56:14;;;;;;;3.55;2.30;;;16.80;99.90;;;;;;5037911;28;20216;-66
2023/09/27 00:58:40;;;;;;;2.03;1.80;;;16.80;99.90;;;;;;5039156;28;20197;-66
2023/09/27 01:01:06;;;;;;;2.58;2.05;;;16.80;99.90;;;;;;5042576;28;20217;-65
2023/09/27 01:03:34;;;;;;;3.28;1.90;;;16.80;99.90;;;;;;5040173;28;20193;-65
2023/09/27 01:06:02;;;;;;;2.70;2.13;;;16.80;99.90;;;;;;5042137;28;20267;-66
2023/09/27 01:08:29;;;;;;;2.00;1.80;;;16.80;99.90;;;;;;5040605;28;20180;-65
2023/09/27 01:10:57;;;;;;;2.78;1.90;;;16.80;99.90;;;;;;5042419;28;20197;-65
2023/09/27 01:13:25;;;;;;;2.42;1.90;;;16.80;99.90;;;;;;5042160;28;20263;-65
2023/09/27 01:15:51;;;;;;;2.60;2.10;;;16.80;99.90;;;;;;5039921;28;20201;-67
2023/09/27 01:18:16;;;;;;;2.25;2.00;;;16.80;99.90;;;;;;5040336;28;20228;-66
2023/09/27 01:20:42;;;;;;;2.80;2.00;;;16.70;99.90;;;;;;5040464;28;20216;-66
2023/09/27 01:23:08;;;;;;;2.17;1.92;;;16.70;99.90;;;;;;5040201;28;20169;-66
2023/09/27 01:25:37;;;;;;;2.95;2.40;;;16.60;99.90;;;;;;5042739;28;20211;-66
2023/09/27 01:28:04;;;;;;;3.17;2.22;;;16.60;99.90;;;;;;5037451;28;20180;-65
2023/09/27 01:30:36;;;;;;;3.20;2.30;;;16.60;99.90;;;;;;5057535;28;20243;-66
2023/09/27 01:33:11;;;;;;;2.55;1.83;;;16.50;99.90;;;;;;5037303;28;20177;-65
2023/09/27 01:35:38;;;;;;;1.92;1.73;;;16.50;99.90;;;;;;5040266;28;20180;-65
2023/09/27 01:38:07;;;;;;;2.33;1.80;;;16.50;99.90;;;;;;5038992;28;20216;-65
2023/09/27 01:40:38;;;;;;;2.38;1.98;;;16.40;99.90;;;;;;5039684;28;20411;-66
2023/09/27 01:43:04;;;;;;;2.88;2.20;;;16.40;99.90;;;;;;5040460;28;20253;-66
2023/09/27 01:45:30;;;;;;;3.05;2.17;;;16.30;99.90;;;;;;5038585;28;20239;-66
2023/09/27 01:48:02;;;;;;;2.13;1.92;;;16.30;99.90;;;;;;5038850;28;20194;-66
2023/09/27 01:50:29;;;;;;;2.47;1.90;;;16.20;99.90;;;;;;5041071;28;20181;-65
2023/09/27 01:52:56;;;;;;;2.72;2.33;;;16.20;99.90;;;;;;5043325;28;20165;-65
2023/09/27 01:55:23;;;;;;;2.47;2.10;;;16.10;99.90;;;;;;5040195;28;20180;-67
2023/09/27 01:57:51;;;;;;;2.50;2.00;;;16.10;99.90;;;;;;5039251;28;20205;-65
2023/09/27 02:00:19;;;;;;;1.83;1.50;;;16.00;99.90;;;;;;5039764;28;20318;-64
2023/09/27 02:02:49;;;;;;;2.55;1.95;;;16.00;99.90;;;;;;5072535;28;20246;-65
2023/09/27 02:05:15;;;;;;;2.65;2.20;;;16.00;99.90;;;;;;5072744;28;20215;-65
2023/09/27 02:07:41;;;;;;;2.58;1.98;;;16.00;99.90;;;;;;5052012;28;20180;-65
2023/09/27 02:10:08;;;;;;;2.72;2.00;;;15.90;99.90;;;;;;5057790;28;20350;-66
2023/09/27 02:12:37;;;;;;;3.47;1.98;;;15.90;99.90;;;;;;5041602;28;20804;-65
2023/09/27 02:15:04;;;;;;;3.05;2.00;;;15.90;99.90;;;;;;5042029;28;20191;-67
2023/09/27 02:17:29;;;;;;;2.33;1.92;;;15.80;99.90;;;;;;5040975;28;20173;-65
2023/09/27 02:19:55;;;;;;;2.47;2.13;;;15.90;99.90;;;;;;5041095;28;20183;-65
2023/09/27 02:22:23;;;;;;;2.70;2.08;;;15.80;99.90;;;;;;5038510;28;20187;-65
2023/09/27 02:24:49;;;;;;;2.65;1.90;;;15.80;99.90;;;;;;5035829;28;20209;-65
2023/09/27 02:27:17;;;;;;;3.35;2.00;;;15.80;99.90;;;;;;5038548;28;20434;-65
2023/09/27 02:29:43;;;;;;;3.78;2.10;;;15.80;99.90;;;;;;5071711;28;20184;-65
2023/09/27 02:32:11;;;;;;;2.17;1.98;;;15.70;99.90;;;;;;5042470;28;20197;-64
2023/09/27 02:34:36;;;;;;;1.95;1.73;;;15.70;99.90;;;;;;5028387;28;20181;-65
2023/09/27 02:37:03;;;;;;;2.72;2.17;;;15.70;99.90;;;;;;5070521;28;20180;-66
2023/09/27 02:39:28;;;;;;;2.20;2.00;;;15.60;99.90;;;;;;5035412;28;20281;-65
2023/09/27 02:41:56;;;;;;;2.60;2.33;;;15.60;99.90;;;;;;5029584;28;20268;-65
2023/09/27 02:44:23;;;;;;;2.15;1.80;;;15.60;99.90;;;;;;5054597;28;20205;-65
2023/09/27 02:46:48;;;;;;;2.50;1.85;;;15.50;99.90;;;;;;5029843;28;20230;-66
2023/09/27 02:49:14;;;;;;;2.67;2.10;;;15.50;99.90;;;;;;5055715;28;20224;-65
2023/09/27 02:51:40;;;;;;;2.03;1.75;;;15.50;99.90;;;;;;5072356;28;20207;-65
2023/09/27 02:54:06;;;;;;;2.95;2.10;;;15.40;99.90;;;;;;5038698;28;20206;-65
2023/09/27 02:56:31;;;;;;;2.30;1.95;;;15.40;99.90;;;;;;5065875;28;20181;-66
2023/09/27 02:58:57;;;;;;;3.05;2.17;;;15.40;99.90;;;;;;5061640;28;20184;-66
2023/09/27 03:01:24;;;;;;;2.60;1.80;;;15.40;99.90;;;;;;5037781;28;20181;-65
2023/09/27 03:03:51;;;;;;;2.22;2.00;;;15.30;99.90;;;;;;5038637;28;20236;-66
2023/09/27 03:06:16;;;;;;;4.18;2.20;;;15.30;99.90;;;;;;5034561;28;20174;-65
2023/09/27 03:08:44;;;;;;;2.92;2.08;;;15.30;99.90;;;;;;5037922;28;20272;-65
2023/09/27 03:11:10;;;;;;;2.60;1.85;;;15.20;99.90;;;;;;5027579;28;20223;-66
2023/09/27 03:13:39;;;;;;;2.05;1.85;;;15.20;99.90;;;;;;5068724;28;20260;-64
2023/09/27 03:16:04;;;;;;;2.67;1.98;;;15.20;99.90;;;;;;5038353;28;20178;-65
2023/09/27 03:18:31;;;;;;;2.42;2.03;;;15.20;99.90;;;;;;5037789;28;20269;-65
2023/09/27 03:20:58;;;;;;;2.33;1.83;;;15.20;99.90;;;;;;5036054;28;20268;-65
2023/09/27 03:23:29;;;;;;;4.03;2.40;;;15.10;99.90;;;;;;5044943;28;20229;-65
2023/09/27 03:25:58;;;;;;;3.50;2.20;;;15.20;99.90;;;;;;5034394;28;20273;-65
2023/09/27 03:28:23;;;;;;;2.78;2.22;;;15.10;99.90;;;;;;5025528;28;20232;-65
2023/09/27 03:30:49;;;;;;;3.10;2.40;;;15.10;99.90;;;;;;5038354;28;20193;-65
2023/09/27 03:33:15;;;;;;;4.05;2.40;;;15.10;99.90;;;;;;5037156;28;20172;-66
2023/09/27 03:35:41;;;;;;;3.13;2.53;;;15.10;99.90;;;;;;5071008;28;20173;-65
2023/09/27 03:38:11;;;;;;;3.17;2.42;;;15.10;99.90;;;;;;5064917;28;20197;-65
2023/09/27 03:40:39;;;;;;;3.67;2.40;;;15.10;99.90;;;;;;5045129;28;20177;-65
2023/09/27 03:43:10;;;;;;;3.08;2.13;;;15.10;99.90;;;;;;5038495;28;20212;-65
2023/09/27 03:45:38;;;;;;;3.13;2.50;;;15.10;99.90;;;;;;5038148;28;20201;-65
2023/09/27 03:48:04;;;;;;;4.82;2.47;;;15.10;99.90;;;;;;5039448;28;20322;-65
2023/09/27 03:50:34;;;;;;;3.00;2.60;;;15.10;99.90;;;;;;5040133;28;20284;-65
2023/09/27 03:53:00;;;;;;;3.10;2.28;;;15.10;99.90;;;;;;5036918;28;20192;-65
2023/09/27 03:55:27;;;;;;;2.65;2.30;;;15.20;99.90;;;;;;5039245;28;20174;-65
2023/09/27 03:57:53;;;;;;;2.53;2.20;;;15.20;99.90;;;;;;5036789;28;20188;-65
2023/09/27 04:00:19;;;;;;;2.72;2.30;;;15.20;99.90;;;;;;5041557;28;20434;-65
2023/09/27 04:02:46;;;;;;;2.55;2.20;;;15.20;99.90;;;;;;5037689;28;20289;-66
2023/09/27 04:05:13;;;;;;;2.60;2.28;;;15.20;99.90;;;;;;5037999;28;20243;-65
2023/09/27 04:07:39;;;;;;;2.45;2.22;;;15.20;99.90;;;;;;5037434;28;20169;-65
2023/09/27 04:10:09;;;;;;;2.95;2.30;;;15.20;99.90;;;;;;5036752;28;20178;-65
2023/09/27 04:12:36;;;;;;;2.72;2.38;;;15.20;99.90;;;;;;5037866;28;20256;-65
2023/09/27 04:15:08;;;;;;;3.03;2.42;;;15.20;99.90;;;;;;5037051;28;20204;-65
2023/09/27 04:17:37;;;;;;;2.35;2.13;;;15.20;99.90;;;;;;5040914;28;20195;-65
2023/09/27 04:20:16;;;;;;;3.63;2.30;;;15.30;99.90;;;;;;5072565;28;20199;-66
2023/09/27 04:22:45;;;;;;;2.63;2.42;;;15.30;99.90;;;;;;5037374;28;20209;-66
2023/09/27 04:25:15;;;;;;;2.67;2.28;;;15.30;99.90;;;;;;5054886;28;20246;-66
2023/09/27 04:27:49;;;;;;;2.60;2.40;;;15.20;99.90;;;;;;5041770;28;20204;-65
2023/09/27 04:30:18;;;;;;;2.30;2.10;;;15.20;99.90;;;;;;5039946;28;20268;-64
2023/09/27 04:32:51;;;;;;;3.42;2.78;;;15.20;99.90;;;;;;5044136;28;20343;-64
2023/09/27 04:35:18;;;;;;;6.95;5.50;;;15.20;99.90;;;;;;5043903;28;20297;-65
2023/09/27 04:37:44;;;;;;;6.90;5.72;;;15.20;99.90;;;;;;5044775;28;20209;-64
2023/09/27 04:40:17;;;;;;;4.53;3.88;;;15.20;99.90;;;;;;5046043;28;20188;-65
2023/09/27 04:42:43;;;;;;;5.68;3.60;;;15.20;99.90;;;;;;5045755;28;20295;-65
2023/09/27 04:45:11;;;;;;;9.43;7.55;;;15.10;99.90;;;;;;5040933;28;20208;-67
2023/09/27 04:47:37;;;;;;;6.63;5.38;;;15.10;99.90;;;;;;5040647;28;20174;-66
2023/09/27 04:50:03;;;;;;;7.78;6.43;;;15.10;99.90;;;;;;5045009;28;20174;-65
2023/09/27 04:52:29;;;;;;;6.13;5.05;;;15.10;99.90;;;;;;5041122;28;20169;-64
2023/09/27 04:54:58;;;;;;;3.88;3.40;;;15.10;99.90;;;;;;5042774;28;20197;-67
2023/09/27 04:57:25;;;;;;;3.47;3.13;;;15.00;99.90;;;;;;5039958;28;20299;-66
2023/09/27 04:59:53;;;;;;;3.85;3.10;;;15.10;99.90;;;;;;5045096;28;20176;-65
2023/09/27 05:02:22;;;;;;;3.50;3.17;;;15.00;99.90;;;;;;5074860;28;20216;-65
2023/09/27 05:04:48;;;;;;;2.90;2.60;;;15.00;99.90;;;;;;5040472;28;20201;-66
2023/09/27 05:07:19;;;;;;;3.10;2.58;;;15.00;99.90;;;;;;5038649;28;20174;-65
2023/09/27 05:09:48;;;;;;;3.67;2.70;;;15.00;99.90;;;;;;5039942;28;20178;-66
2023/09/27 05:12:14;;;;;;;2.97;2.30;;;15.00;99.90;;;;;;5040887;28;20258;-66
2023/09/27 05:14:43;;;;;;;2.72;2.40;;;15.00;99.90;;;;;;5073749;28;20254;-66
2023/09/27 05:17:09;;;;;;;3.35;2.50;;;15.00;99.90;;;;;;5037688;28;20170;-67
2023/09/27 05:19:37;;;;;;;4.63;2.65;;;15.00;99.90;;;;;;5040211;28;20181;-67
2023/09/27 05:22:05;;;;;;;3.10;2.70;;;15.00;99.90;;;;;;5046379;28;20323;-67
2023/09/27 05:24:32;;;;;;;2.88;2.58;;;15.00;99.90;;;;;;5040161;28;20292;-67
2023/09/27 05:27:03;;;;;;;5.30;2.58;;;15.00;99.90;;;;;;5037975;28;20275;-67
2023/09/27 05:29:31;;;;;;;5.78;4.57;;;15.00;99.90;;;;;;5063185;28;20189;-66
2023/09/27 05:31:59;;;;;;;11.05;5.43;;;15.00;99.90;;;;;;5070594;28;20188;-67
2023/09/27 05:34:24;;;;;;;6.20;4.55;;;15.00;99.90;;;;;;5079852;28;20207;-68
2023/09/27 05:36:50;;;;;;;5.18;3.40;;;15.00;99.90;;;;;;5050656;28;20268;-65
2023/09/27 05:39:16;;;;;;;4.32;3.15;;;15.00;99.90;;;;;;5040278;28;20195;-64
2023/09/27 05:41:42;;;;;;;4.32;3.28;;;15.00;99.90;;;;;;5039177;28;20213;-65
2023/09/27 05:44:10;;;;;;;5.43;3.10;;;15.00;99.90;;;;;;5039450;28;20220;-64
2023/09/27 05:46:40;;;;;;;4.25;2.75;;;14.90;99.90;;;;;;5055916;28;20276;-65
2023/09/27 05:49:09;;;;;;;5.53;3.10;;;14.90;99.90;;;;;;5038896;28;20273;-65
2023/09/27 05:51:37;;;;;;;4.13;3.13;;;14.90;99.90;;;;;;5039708;28;20169;-64
2023/09/27 05:54:08;;;;;;;5.45;3.00;;;15.00;99.90;;;;;;5052218;28;20272;-65
2023/09/27 05:56:37;;;;;;;4.95;3.38;;;14.90;99.90;;;;;;5048068;28;20174;-65
2023/09/27 05:59:08;;;;;;;4.25;3.20;;;15.00;99.90;;;;;;5019927;28;20390;-65
2023/09/27 06:01:37;;;;;;;6.72;4.50;;;15.00;99.90;;;;;;5038150;28;20248;-64
2023/09/27 06:04:03;;;;;;;4.38;3.95;;;15.10;99.90;;;;;;5037636;28;20217;-65
2023/09/27 06:06:29;;;;;;;7.18;4.15;;;15.10;99.90;;;;;;5039603;28;20227;-65
2023/09/27 06:08:58;;;;;;;6.95;4.35;;;15.10;99.90;;;;;;5072462;28;20169;-64
2023/09/27 06:11:24;;;;;;;6.13;4.50;;;15.20;99.90;;;;;;5056477;28;20197;-64
2023/09/27 06:13:52;;;;;;;6.05;4.13;;;15.20;99.90;;;;;;5039134;28;20177;-65
2023/09/27 06:16:21;;;;;;;5.50;4.25;;;15.30;99.90;;;;;;5057720;28;20181;-64
2023/09/27 06:18:47;;;;;;;4.55;4.05;;;15.40;99.90;;;;;;5039504;28;20181;-64
2023/09/27 06:21:14;;;;;;;4.93;4.07;;;15.40;99.90;;;;;;5037874;28;20201;-65
2023/09/27 06:23:40;;;;;;;5.47;3.97;;;15.50;99.90;;;;;;5039089;28;20216;-65
2023/09/27 06:26:09;;;;;;;6.15;4.40;;;15.60;99.90;;;;;;5039921;28;20182;-65
2023/09/27 06:28:38;;;;;;;5.75;4.55;;;15.60;99.90;;;;;;5038341;28;20372;-65
2023/09/27 06:31:06;;;;;;;5.75;4.38;;;15.70;99.90;;;;;;5042481;28;20205;-65
2023/09/27 06:33:38;;;;;;;6.55;4.90;;;15.80;99.90;;;;;;5036388;28;20178;-65
2023/09/27 06:36:07;;;;;;;5.28;4.75;;;15.80;99.90;;;;;;5039292;28;20189;-65
2023/09/27 06:38:35;;;;;;;7.10;5.35;;;15.90;99.90;;;;;;5039123;28;20220;-66
2023/09/27 06:41:03;;;;;;;5.32;4.30;;;16.00;99.90;;;;;;5035289;28;20208;-66
2023/09/27 06:43:31;;;;;;;6.10;4.53;;;16.10;99.90;;;;;;5039006;28;20182;-65
2023/09/27 06:46:01;;;;;;;5.00;4.50;;;16.10;99.90;;;;;;5037946;28;20177;-65
2023/09/27 06:48:29;;;;;;;8.35;4.95;;;16.20;99.90;;;;;;5072466;28;20169;-65
2023/09/27 06:50:54;;;;;;;5.93;4.65;;;16.20;99.90;;;;;;5071080;28;20181;-65
2023/09/27 06:53:23;;;;;;;6.00;5.07;;;16.30;99.90;;;;;;5034616;28;20178;-66
2023/09/27 06:55:49;;;;;;;5.65;4.47;;;16.30;99.90;;;;;;5038356;28;20181;-65
2023/09/27 06:58:22;;;;;;;5.60;4.68;;;16.30;99.90;;;;;;5037436;28;20205;-66
2023/09/27 07:00:52;;;;;;;7.40;4.68;;;16.30;99.90;;;;;;5038851;28;20205;-65
2023/09/27 07:03:19;;;;;;;5.88;5.10;;;16.40;99.90;;;;;;5039085;28;20188;-65
2023/09/27 07:05:46;;;;;;;5.68;4.50;;;16.40;99.90;;;;;;5038489;28;20220;-66
2023/09/27 07:08:13;;;;;;;5.80;5.15;;;16.40;99.90;;;;;;5038889;28;20234;-65
2023/09/27 07:10:42;;;;;;;8.57;5.93;;;16.50;99.90;;;;;;5038877;28;20173;-66
2023/09/27 07:13:10;;;;;;;6.97;5.85;;;16.50;99.90;;;;;;5038889;28;20252;-64
2023/09/27 07:15:37;;;;;;;6.60;5.10;;;16.50;99.90;;;;;;5057357;28;20233;-64
2023/09/27 07:18:03;;;;;;;6.78;5.35;;;16.60;99.90;;;;;;5042718;28;20186;-66
2023/09/27 07:20:33;;;;;;;5.68;4.90;;;16.60;99.90;;;;;;5038323;28;20181;-65
2023/09/27 07:22:59;;;;;;;6.95;5.25;;;16.70;99.90;;;;;;5034452;28;20182;-66
2023/09/27 07:25:25;;;;;;;7.57;5.13;;;16.80;99.90;;;;;;5034948;28;20210;-65
2023/09/27 07:27:53;;;;;;;6.28;5.03;;;16.90;99.90;;;;;;5038840;28;20308;-68
2023/09/27 07:30:23;;;;;;;7.40;5.07;;;16.90;99.90;;;;;;5042187;28;20173;-67
2023/09/27 07:32:50;;;;;;;5.78;5.18;;;17.00;99.90;;;;;;5041178;28;20204;-67
2023/09/27 07:35:18;;;;;;;6.22;5.45;;;17.10;99.90;;;;;;5043113;28;20211;-68
2023/09/27 07:37:47;;;;;;;6.25;4.68;;;17.10;99.90;;;;;;5039912;28;20192;-67
2023/09/27 07:40:14;;;;;;;6.28;5.20;;;17.20;99.90;;;;;;5038702;28;20235;-68
2023/09/27 07:42:41;;;;;;;5.85;5.05;;;17.30;99.90;;;;;;5041640;28;20177;-67
2023/09/27 07:45:30;;;;;;;7.00;5.85;;;17.30;99.90;;;;;;5043618;28;20198;-68
2023/09/27 07:47:55;;;;;;;8.27;6.00;;;17.40;99.90;;;;;;5034782;28;20168;-68
2023/09/27 07:50:28;;;;;;;6.40;5.47;;;17.50;99.90;;;;;;5037668;28;20260;-67
2023/09/27 07:52:54;;;;;;;6.63;5.65;;;17.50;99.90;;;;;;5036735;28;20212;-67
2023/09/27 07:55:22;;;;;;;6.85;5.32;;;17.50;99.90;;;;;;5038648;28;20188;-68
2023/09/27 07:57:52;;;;;;;6.53;5.07;;;17.60;99.90;;;;;;5036868;28;20189;-67
2023/09/27 08:00:19;;;;;;;6.88;5.40;;;17.60;99.90;;;;;;5037526;28;20201;-67
2023/09/27 08:02:46;;;;;;;7.18;5.25;;;17.60;99.90;;;;;;5050450;28;20535;-67
2023/09/27 08:05:14;;;;;;;5.90;4.95;;;17.70;99.90;;;;;;5074729;28;20184;-67
2023/09/27 08:07:40;;;;;;;5.55;4.90;;;17.80;99.90;;;;;;5036223;28;20197;-67
2023/09/27 08:10:07;;;;;;;6.65;5.00;;;17.80;99.90;;;;;;5070464;28;20326;-67
2023/09/27 08:12:34;;;;;;;6.25;5.38;;;17.80;99.90;;;;;;5035343;28;20177;-67
2023/09/27 08:15:06;;;;;;;5.20;4.63;;;17.80;99.90;;;;;;5037455;28;20276;-67
2023/09/27 08:17:32;;;;;;;6.10;4.97;;;17.80;99.90;;;;;;5037122;28;20197;-67
2023/09/27 08:20:11;;;;;;;5.80;4.88;;;17.90;99.90;;;;;;5071329;28;20169;-67
2023/09/27 08:22:39;;;;;;;6.78;4.85;;;17.80;99.90;;;;;;5039075;28;20248;-67
2023/09/27 08:25:14;;;;;;;5.93;4.50;;;17.90;99.90;;;;;;5039172;28;20205;-67
2023/09/27 08:27:44;;;;;;;5.28;4.78;;;17.90;99.90;;;;;;5039035;28;20188;-66
2023/09/27 08:30:11;;;;;;;5.05;4.55;;;17.90;99.90;;;;;;5037289;28;20188;-66
2023/09/27 08:32:40;;;;;;;6.38;4.95;;;17.90;99.90;;;;;;5036864;28;20177;-66
2023/09/27 08:35:09;;;;;;;5.65;4.55;;;18.00;99.90;;;;;;5037246;28;20201;-67
2023/09/27 08:37:37;;;;;;;6.20;4.63;;;18.00;99.90;;;;;;5036377;28;20184;-67
2023/09/27 08:40:07;;;;;;;4.55;4.07;;;18.00;99.90;;;;;;5070758;28;20165;-67
2023/09/27 08:42:36;;;;;;;5.55;4.60;;;18.00;99.90;;;;;;5081147;28;20193;-67
2023/09/27 08:45:09;;;;;;;5.50;4.47;;;18.00;99.90;;;;;;5055040;28;20200;-66
2023/09/27 08:47:36;;;;;;;5.15;4.25;;;18.10;99.90;;;;;;5067107;28;20248;-66
2023/09/27 08:50:04;;;;;;;4.28;3.88;;;18.10;99.90;;;;;;5046652;28;20161;-66
2023/09/27 08:52:32;;;;;;;6.57;4.57;;;18.20;99.90;;;;;;5036775;28;20177;-66
2023/09/27 08:55:03;;;;;;;5.55;4.55;;;18.30;99.90;;;;;;5069859;28;20197;-66
2023/09/27 08:57:36;;;;;;;5.20;4.70;;;18.40;99.90;;;;;;5037500;28;20204;-66
2023/09/27 09:00:13;;;;;;;5.22;4.60;;;18.50;99.90;;;;;;5040549;28;20185;-67
2023/09/27 09:02:41;;;;;;;4.00;3.60;;;18.60;99.90;;;;;;5043864;28;20200;-67
2023/09/27 09:05:11;;;;;;;7.85;4.35;;;18.70;99.90;;;;;;5036350;28;20197;-67
2023/09/27 09:07:40;;;;;;;5.47;3.95;;;18.80;99.90;;;;;;5036931;28;20170;-67
2023/09/27 09:10:09;;;;;;;4.68;4.10;;;18.90;99.90;;;;;;5030941;28;20468;-66
2023/09/27 09:12:38;;;;;;;5.05;4.40;;;19.10;99.90;;;;;;5036540;28;20169;-67
2023/09/27 09:15:06;;;;;;;6.40;4.43;;;19.20;99.90;;;;;;5036153;28;20216;-69
2023/09/27 09:17:34;;;;;;;5.20;4.07;;;19.30;99.90;;;;;;5038778;28;20181;-67
2023/09/27 09:20:21;;;;;;;4.63;3.65;;;19.50;99.90;;;;;;5039249;28;20177;-67
2023/09/27 09:22:49;;;;;;;4.38;3.60;;;19.60;99.90;;;;;;5041069;28;20204;-67
2023/09/27 09:25:14;;;;;;;3.92;3.50;;;19.70;99.90;;;;;;5037636;28;20263;-66
2023/09/27 09:27:43;;;;;;;5.80;3.90;;;19.90;99.90;;;;;;5041274;28;20208;-67
2023/09/27 09:30:12;;;;;;;4.00;3.60;;;20.10;99.90;;;;;;5038859;28;20522;-67
2023/09/27 09:32:51;;;;;;;4.00;3.53;;;20.50;99.90;;;;;;5039874;28;20181;-67
2023/09/27 09:35:31;;;;;;;4.88;3.25;;;21.10;99.90;;;;;;5040222;28;20189;-67
2023/09/27 09:38:01;;;;;;;4.22;3.45;;;21.80;99.90;;;;;;5040469;28;20209;-67
2023/09/27 09:40:31;;;;;;;3.55;3.17;;;22.40;99.90;;;;;;5070627;28;20265;-67
2023/09/27 09:42:59;;;;;;;3.30;2.97;;;22.90;99.90;;;;;;5039846;28;20220;-67
2023/09/27 09:45:26;;;;;;;3.35;2.80;;;23.40;99.90;;;;;;5048985;28;20285;-67
2023/09/27 09:47:52;;;;;;;3.15;2.42;;;23.70;99.90;;;;;;5060016;28;20169;-67
2023/09/27 09:50:18;;;;;;;4.22;2.50;;;24.10;99.90;;;;;;5042005;28;20216;-67
2023/09/27 09:52:55;;;;;;;2.60;1.98;;;24.30;99.90;;;;;;5039380;28;20260;-67
2023/09/27 09:55:23;;;;;;;4.07;2.60;;;24.40;99.90;;;;;;5035917;28;20189;-67
2023/09/27 09:57:55;;;;;;;3.05;2.60;;;24.50;99.90;;;;;;5035291;28;20189;-67
2023/09/27 10:00:30;;;;;;;4.07;2.22;;;24.70;99.90;;;;;;5036258;28;20181;-67
2023/09/27 10:03:07;;;;;;;2.42;1.95;;;24.90;99.90;;;;;;5039336;28;20300;-67
2023/09/27 10:05:39;;;;;;;2.58;2.08;;;25.30;99.90;;;;;;5038345;28;20212;-67
2023/09/27 10:08:06;;;;;;;2.30;2.10;;;25.70;99.90;;;;;;5039360;28;20276;-67
2023/09/27 10:10:35;;;;;;;2.83;2.05;;;26.10;99.90;;;;;;5071232;28;20208;-67
2023/09/27 10:13:06;;;;;;;2.88;2.08;;;26.40;99.90;;;;;;5039303;28;20235;-67
2023/09/27 10:15:33;;;;;;;4.13;1.80;;;26.60;99.90;;;;;;5062910;28;20181;-67
2023/09/27 10:18:21;;;;;;;3.47;2.00;;;26.80;99.90;;;;;;5044038;28;20181;-65
2023/09/27 10:21:07;;;;;;;3.33;2.10;;;27.20;99.90;;;;;;5039904;28;20244;-68
2023/09/27 10:23:35;;;;;;;2.30;1.90;;;27.50;99.90;;;;;;5021239;28;20198;-66
2023/09/27 10:26:31;;;;;;;2.42;1.95;;;27.70;99.90;;;;;;5037344;28;20170;-66
2023/09/27 10:29:03;;;;;;;2.25;2.00;;;27.90;99.90;;;;;;5056932;28;20182;-67
2023/09/27 10:32:01;;;;;;;2.50;1.70;;;28.10;99.90;;;;;;5055437;28;20209;-67
2023/09/27 10:36:57;;;;;;;2.38;1.90;;;28.50;99.90;;;;;;5060477;28;20177;-66
2023/09/27 10:39:25;;;;;;;4.75;1.63;;;28.60;99.90;;;;;;5047301;28;20189;-67
2023/09/27 10:41:53;;;;;;;2.15;1.95;;;28.80;99.90;;;;;;5039362;28;20185;-67
2023/09/27 10:44:30;;;;;;;3.60;1.95;;;28.80;99.90;;;;;;5038262;28;20208;-66
2023/09/27 10:47:01;;;;;;;2.28;1.75;;;28.90;99.90;;;;;;5057020;28;20199;-67
2023/09/27 10:49:47;;;;;;;2.40;2.00;;;29.00;99.90;;;;;;5068803;28;20204;-67
2023/09/27 10:52:18;;;;;;;2.63;1.98;;;29.00;99.90;;;;;;5035312;28;20197;-67
2023/09/27 10:54:46;;;;;;;2.00;1.80;;;29.00;99.90;;;;;;5036796;28;20192;-67
2023/09/27 10:57:15;;;;;;;2.78;1.77;;;29.00;99.90;;;;;;5035784;28;20212;-67
2023/09/27 10:59:44;;;;;;;1.88;1.58;;;29.10;99.90;;;;;;5068824;28;20178;-67
2023/09/27 11:02:11;;;;;;;1.90;1.60;;;29.10;99.90;;;;;;5036746;28;20178;-68
2023/09/27 11:04:38;;;;;;;2.30;1.60;;;29.10;99.90;;;;;;5070054;28;20216;-67
2023/09/27 11:07:04;;;;;;;2.17;1.90;;;29.00;99.90;;;;;;5040140;28;20191;-67
2023/09/27 11:09:41;;;;;;;1.80;1.58;;;29.00;99.90;;;;;;5058395;28;20181;-67
2023/09/27 11:12:09;;;;;;;1.90;1.70;;;28.90;99.90;;;;;;5037421;28;20201;-67
2023/09/27 11:14:35;;;;;;;2.22;1.60;;;28.80;99.90;;;;;;5087968;28;20185;-67
2023/09/27 11:17:21;;;;;;;2.45;1.70;;;28.70;99.90;;;;;;5051846;28;20188;-67
2023/09/27 11:19:48;;;;;;;3.80;1.95;;;28.70;99.90;;;;;;5038876;28;20200;-68
2023/09/27 11:22:30;;;;;;;2.17;1.85;;;28.60;99.90;;;;;;5038134;28;20233;-67
2023/09/27 11:24:56;;;;;;;2.30;1.70;;;28.50;99.90;;;;;;5037798;28;20201;-67
2023/09/27 11:27:22;;;;;;;2.35;2.05;;;28.40;99.90;;;;;;5069368;28;20177;-67
2023/09/27 11:29:52;;;;;;;2.05;1.75;;;28.30;99.90;;;;;;5034842;28;20170;-67
2023/09/27 11:32:20;;;;;;;1.80;1.70;;;28.30;99.90;;;;;;5047581;28;20204;-67
2023/09/27 11:34:58;;;;;;;1.90;1.80;;;28.30;99.90;;;;;;5054615;28;20231;-67
2023/09/27 11:37:25;;;;;;;5.28;2.20;;;28.30;99.90;;;;;;5017858;28;20173;-66
2023/09/27 11:39:57;;;;;;;2.08;1.77;;;28.30;99.90;;;;;;5056761;28;20211;-67
2023/09/27 11:42:24;;;;;;;2.47;1.90;;;28.20;99.90;;;;;;5034755;28;20208;-67
2023/09/27 11:45:09;;;;;;;2.85;2.05;;;28.20;99.90;;;;;;5043676;28;20200;-68
2023/09/27 11:47:51;;;;;;;3.45;2.00;;;28.20;99.90;;;;;;5056123;28;20177;-66
2023/09/27 11:50:21;;;;;;;2.78;2.17;;;28.20;99.90;;;;;;5070450;28;20177;-67
2023/09/27 11:52:49;;;;;;;2.22;1.83;;;28.10;99.90;;;;;;5036947;28;20198;-68
2023/09/27 11:55:18;;;;;;;3.13;2.00;;;28.10;99.90;;;;;;5071258;28;20177;-68
2023/09/27 11:57:44;;;;;;;2.42;2.15;;;28.00;99.90;;;;;;5071798;28;20181;-66
2023/09/27 12:00:15;;;;;;;2.03;1.85;;;28.00;99.90;;;;;;5050929;28;20200;-67
2023/09/27 12:02:43;;;;;;;2.10;1.80;;;28.00;99.90;;;;;;5036780;28;20204;-66
2023/09/27 12:05:11;;;;;;;2.40;1.95;;;28.10;99.90;;;;;;5036986;28;20197;-66
2023/09/27 12:07:39;;;;;;;3.00;1.80;;;28.10;99.90;;;;;;5067089;28;20180;-67
2023/09/27 12:10:05;;;;;;;2.45;1.92;;;28.10;99.90;;;;;;5036882;28;20241;-66
2023/09/27 12:12:31;;;;;;;3.10;1.90;;;28.10;99.90;;;;;;5037118;28;20181;-66
2023/09/27 12:14:57;;;;;;;2.00;1.80;;;28.00;99.90;;;;;;5037243;28;20230;-67
2023/09/27 12:17:22;;;;;;;2.42;1.95;;;27.90;99.90;;;;;;5038000;28;20185;-66
2023/09/27 12:19:50;;;;;;;2.97;2.00;;;27.80;99.90;;;;;;5034495;28;20181;-66
2023/09/27 12:22:16;;;;;;;2.95;2.03;;;27.80;99.90;;;;;;5036252;28;20216;-67
2023/09/27 12:24:42;;;;;;;3.92;2.20;;;27.90;99.90;;;;;;5037506;28;20197;-67
2023/09/27 12:27:10;;;;;;;3.50;2.38;;;28.00;99.90;;;;;;5036722;28;20197;-67
2023/09/27 12:29:36;;;;;;;3.80;2.00;;;28.10;99.90;;;;;;5037632;28;20174;-67
2023/09/27 12:32:02;;;;;;;2.85;2.28;;;28.20;99.90;;;;;;5038974;28;20188;-67
2023/09/27 12:34:32;;;;;;;2.53;2.10;;;28.20;99.90;;;;;;5070654;28;20198;-67
2023/09/27 12:37:00;;;;;;;2.15;1.95;;;28.30;99.90;;;;;;5069352;28;20173;-67
2023/09/27 12:39:26;;;;;;;2.97;2.17;;;28.20;99.90;;;;;;5037681;28;20201;-67
2023/09/27 12:41:51;;;;;;;2.10;1.83;;;28.20;99.90;;;;;;5037742;28;20216;-67
2023/09/27 12:44:19;;;;;;;2.63;1.83;;;28.10;99.90;;;;;;5037601;28;20251;-67
2023/09/27 12:46:47;;;;;;;1.92;1.70;;;28.10;99.90;;;;;;5049615;28;20181;-68
2023/09/27 12:49:15;;;;;;;2.92;2.03;;;28.10;99.90;;;;;;5047141;28;20174;-67
2023/09/27 12:51:40;;;;;;;3.08;1.90;;;28.10;99.90;;;;;;5052213;28;20200;-67
2023/09/27 12:54:06;;;;;;;2.00;1.75;;;28.10;99.90;;;;;;5059126;28;20216;-67
2023/09/27 12:56:36;;;;;;;2.05;1.58;;;28.30;99.90;;;;;;5039859;28;20267;-66
2023/09/27 12:59:02;;;;;;;3.58;2.15;;;28.50;99.90;;;;;;5041041;28;20173;-68